Airport Information

KLWS - Lewiston Nez Perce Co Airport

KLWS 160656Z AUTO 00000KT 9SM CLR M03/M06 A2997 RMK AO2 SLP167 T10331056


  • General Information

  • Coordinates: N 46°22'28"/ W 117°0'55"
  • Location: N/A
  • Surveyed Elevation: 1442 MSL

Operations

Flow Name Active Runways Conditions

Green background denotes normal operations.


Common Frequencies

Callsign Frequency Position Name

More at the Document Center


Charts